Heat Index [SAI AWOS/ASOS Display]_________FAA Disclaimer: "Not for use in aviation at this time______________" Untitled Document
Indianapolis Executive Airport IN
190
05:41
17/08/17
05
N/A
N/A
29.94
2200
922
76(F), 24(C)
72(F), 22(C)
76 F
89%
SCT036 SCT110
10
N/A
N/A
N/A
05:41 zulu Wind 190 at 05 Knots, Altimeter 29.94
METAR KTYQ 170541Z AUTO 19005KT 10SM SCT036 SCT110 24/22 A2994 A02
METAR:
FAA Disclaimer--Advisory Use ONLY, not for flight info-- 2/21/2009: Airport FBO 317-769-3288... New URL for smartphones... http://www.saiawos2.com/TYQ
INFO:
Wind Direction:
Wind Speed:
Wind Gust:
Wind Variable:
Altimeter:
Dens Alt:
Elev:
Temp:
Dwpt:
Heat Index
Rel Humidity:
Ceiling:
Visibility:
Prsnt Wea:
PCPN:
Remarks:
How to read the WebPage